createdAt,value
2022-10-25T00:00:36.259Z,72.14
2022-10-25T00:01:44.539Z,72.15
2022-10-25T00:02:46.197Z,72.37
2022-10-25T00:03:47.674Z,72.74
2022-10-25T00:04:49.251Z,72.75
2022-10-25T00:05:50.755Z,72.56
2022-10-25T00:06:52.185Z,72.60
2022-10-25T00:07:53.673Z,72.39
2022-10-25T00:08:55.160Z,72.59
2022-10-25T00:09:56.620Z,72.76
2022-10-25T00:10:58.090Z,72.54
2022-10-25T00:11:59.523Z,72.32
2022-10-25T00:13:01.075Z,72.11
2022-10-25T00:14:03.745Z,71.89
2022-10-25T00:15:05.499Z,71.70
2022-10-25T00:16:12.746Z,71.32
2022-10-25T00:17:14.255Z,71.40
2022-10-25T00:18:15.732Z,71.43
2022-10-25T00:19:17.395Z,71.42
2022-10-25T00:20:19.068Z,71.40
2022-10-25T00:21:20.547Z,71.21
2022-10-25T00:22:22.022Z,71.12
2022-10-25T00:23:23.511Z,71.12
2022-10-25T00:24:25.020Z,70.97
2022-10-25T00:25:26.511Z,70.75
2022-10-25T00:26:28.123Z,70.80
2022-10-25T00:27:30.286Z,70.73
2022-10-25T00:28:35.348Z,70.60
2022-10-25T00:29:36.823Z,70.37
2022-10-25T00:30:38.254Z,70.52
2022-10-25T00:31:39.777Z,70.50
2022-10-25T00:32:41.307Z,70.44
2022-10-25T00:33:42.975Z,70.47
2022-10-25T00:34:44.484Z,70.38
2022-10-25T00:35:45.920Z,70.24
2022-10-25T00:36:47.409Z,70.79
2022-10-25T00:37:49.024Z,71.00
2022-10-25T00:38:50.577Z,71.46
2022-10-25T00:39:52.063Z,71.67
2022-10-25T00:40:53.515Z,71.67
2022-10-25T00:41:55.038Z,71.55
2022-10-25T00:42:56.512Z,71.43
2022-10-25T00:44:16.965Z,71.28
2022-10-25T00:45:21.544Z,71.13
2022-10-25T00:46:24.758Z,70.93
2022-10-25T00:47:28.906Z,70.66
2022-10-25T00:48:30.366Z,70.58
2022-10-25T00:49:31.894Z,70.69
2022-10-25T00:50:41.198Z,70.65
2022-10-25T00:51:46.989Z,70.51
2022-10-25T00:52:49.095Z,70.43
2022-10-25T00:53:50.598Z,70.42
2022-10-25T00:54:52.702Z,70.53
2022-10-25T00:56:04.818Z,70.21
2022-10-25T00:57:09.514Z,70.22
2022-10-25T00:58:14.815Z,70.04
2022-10-25T00:59:17.284Z,69.80
2022-10-25T01:00:18.801Z,69.68
2022-10-25T01:01:20.334Z,69.71
2022-10-25T01:02:22.075Z,69.79
2022-10-25T01:03:23.603Z,69.57
2022-10-25T01:04:26.276Z,69.48
2022-10-25T01:05:27.790Z,69.48
2022-10-25T01:06:38.964Z,69.49
2022-10-25T01:07:40.402Z,69.63
2022-10-25T01:08:42.184Z,69.71
2022-10-25T01:09:43.675Z,69.52
2022-10-25T01:10:45.169Z,69.55
2022-10-25T01:11:46.719Z,69.42
2022-10-25T01:12:51.274Z,69.41
2022-10-25T01:13:53.762Z,69.59
2022-10-25T01:14:55.244Z,69.46
2022-10-25T01:16:00.990Z,69.64
2022-10-25T01:17:08.655Z,69.34
2022-10-25T01:18:15.272Z,69.45
2022-10-25T01:19:19.731Z,69.25
2022-10-25T01:20:24.099Z,69.25
2022-10-25T01:21:45.026Z,69.17
2022-10-25T01:22:49.566Z,69.08
2022-10-25T01:24:04.446Z,68.93
2022-10-25T01:25:14.258Z,68.88
2022-10-25T01:26:34.027Z,68.74
2022-10-25T01:27:35.474Z,68.74
2022-10-25T01:28:36.919Z,68.69
2022-10-25T01:29:55.862Z,68.48
2022-10-25T01:31:12.825Z,68.51
2022-10-25T01:32:14.347Z,68.54
2022-10-25T01:33:32.418Z,68.90
2022-10-25T01:34:38.808Z,68.93
2022-10-25T01:35:45.479Z,68.96
2022-10-25T01:37:25.540Z,69.01
2022-10-25T01:38:45.770Z,68.82
2022-10-25T01:39:49.768Z,68.91
2022-10-25T01:40:51.274Z,68.74
2022-10-25T01:42:08.366Z,68.65
2022-10-25T01:43:18.646Z,68.54
2022-10-25T01:44:20.063Z,68.57
2022-10-25T01:45:22.972Z,68.41
2022-10-25T01:46:25.832Z,68.44
2022-10-25T01:47:33.930Z,68.32
2022-10-25T01:48:37.013Z,68.42
2022-10-25T01:49:48.602Z,68.24
2022-10-25T01:50:50.042Z,68.22
2022-10-25T01:51:51.571Z,68.19
2022-10-25T01:53:59.473Z,67.99
2022-10-25T01:55:00.911Z,67.92
2022-10-25T01:56:02.369Z,67.79
2022-10-25T01:57:11.159Z,67.90
2022-10-25T01:58:21.218Z,67.91
2022-10-25T01:59:46.000Z,67.78
2022-10-25T02:00:49.558Z,67.81
2022-10-25T02:02:01.281Z,68.02
2022-10-25T02:03:29.081Z,68.02
2022-10-25T02:04:30.531Z,68.20
2022-10-25T02:05:43.918Z,68.13
2022-10-25T02:06:49.411Z,68.22
2022-10-25T02:08:19.856Z,68.18
2022-10-25T02:09:25.101Z,68.31
2022-10-25T02:10:31.481Z,68.35
2022-10-25T02:11:32.958Z,68.49
2022-10-25T02:12:41.614Z,68.37
2022-10-25T02:14:01.947Z,68.31
2022-10-25T02:15:13.671Z,68.30
2022-10-25T02:16:38.507Z,68.15
2022-10-25T02:17:44.720Z,68.08
2022-10-25T02:18:48.296Z,68.15
2022-10-25T02:19:50.762Z,68.04
2022-10-25T02:20:52.212Z,68.01
2022-10-25T02:21:53.711Z,67.88
2022-10-25T02:22:55.149Z,67.82
2022-10-25T02:23:56.735Z,67.96
2022-10-25T02:24:58.182Z,67.76
2022-10-25T02:25:59.638Z,67.66
2022-10-25T02:27:01.127Z,67.77
2022-10-25T02:28:03.806Z,67.67
2022-10-25T02:29:05.542Z,67.86
2022-10-25T02:30:07.193Z,67.93
2022-10-25T02:31:10.510Z,67.85
2022-10-25T02:32:11.942Z,67.93
2022-10-25T02:33:13.455Z,68.22
2022-10-25T02:34:15.155Z,68.09
2022-10-25T02:35:17.141Z,68.01
2022-10-25T02:36:19.508Z,68.08
2022-10-25T02:37:21.023Z,68.18
2022-10-25T02:38:22.479Z,68.17
2022-10-25T02:39:27.675Z,68.43
2022-10-25T02:40:32.019Z,68.24
2022-10-25T02:41:33.883Z,68.17
2022-10-25T02:42:35.359Z,68.27
2022-10-25T02:43:38.515Z,68.24
2022-10-25T02:44:39.993Z,68.18
2022-10-25T02:45:41.591Z,68.33
2022-10-25T02:46:43.030Z,68.44
2022-10-25T02:47:44.616Z,68.47
2022-10-25T02:48:46.386Z,68.27
2022-10-25T02:49:47.927Z,68.39
2022-10-25T02:50:49.398Z,68.21
2022-10-25T02:52:53.405Z,68.32
2022-10-25T02:53:54.950Z,68.02
2022-10-25T02:54:56.427Z,68.01
2022-10-25T02:56:01.169Z,68.39
2022-10-25T02:57:02.655Z,68.57
2022-10-25T02:58:04.160Z,68.54
2022-10-25T02:59:05.760Z,68.67
2022-10-25T03:00:07.693Z,68.49
2022-10-25T03:01:09.332Z,68.63
2022-10-25T03:02:10.845Z,68.70
2022-10-25T03:03:12.307Z,69.07
2022-10-25T03:04:13.784Z,69.18
2022-10-25T03:05:15.282Z,69.05
2022-10-25T03:06:16.926Z,69.22
2022-10-25T03:07:18.388Z,69.53
2022-10-25T03:08:20.020Z,69.38
2022-10-25T03:09:21.538Z,69.30
2022-10-25T03:10:22.995Z,69.30
2022-10-25T03:11:24.751Z,69.34
2022-10-25T03:12:26.203Z,69.12
2022-10-25T03:13:27.686Z,69.42
2022-10-25T03:14:29.198Z,69.56
2022-10-25T03:15:30.703Z,69.68
2022-10-25T03:16:32.207Z,69.67
2022-10-25T03:17:33.693Z,69.89
2022-10-25T03:18:35.165Z,69.68
2022-10-25T03:19:36.611Z,69.59
2022-10-25T03:20:38.150Z,69.55
2022-10-25T03:21:41.290Z,69.37
2022-10-25T03:22:43.489Z,69.45
2022-10-25T03:23:44.991Z,69.52
2022-10-25T03:24:46.422Z,69.48
2022-10-25T03:25:53.489Z,69.59
2022-10-25T03:26:55.827Z,69.52
2022-10-25T03:27:57.343Z,69.63
2022-10-25T03:28:58.903Z,69.55
2022-10-25T03:30:00.412Z,69.42
2022-10-25T03:31:01.861Z,69.47
2022-10-25T03:32:05.497Z,69.69
2022-10-25T03:33:07.047Z,69.57
2022-10-25T03:34:08.489Z,69.81
2022-10-25T03:35:09.935Z,70.12
2022-10-25T03:36:11.543Z,70.13
2022-10-25T03:37:13.023Z,70.03
2022-10-25T03:38:14.464Z,69.80
2022-10-25T03:39:15.972Z,70.12
2022-10-25T03:40:17.650Z,70.36
2022-10-25T03:41:19.094Z,70.34
2022-10-25T03:42:20.610Z,69.96
2022-10-25T03:44:24.561Z,70.16
2022-10-25T03:45:26.072Z,70.12
2022-10-25T03:46:27.546Z,69.88
2022-10-25T03:47:29.027Z,70.06
2022-10-25T03:48:30.540Z,70.28
2022-10-25T03:49:31.991Z,70.69
2022-10-25T03:50:33.510Z,70.67
2022-10-25T03:51:35.018Z,70.61
2022-10-25T03:53:01.884Z,70.94
2022-10-25T03:54:03.424Z,70.88
2022-10-25T03:55:05.348Z,70.89
2022-10-25T03:56:07.439Z,70.71
2022-10-25T03:57:10.201Z,70.96
2022-10-25T03:58:11.793Z,70.60
2022-10-25T03:59:13.447Z,70.53
2022-10-25T04:00:15.115Z,70.41
2022-10-25T04:01:16.893Z,70.59
2022-10-25T04:02:18.524Z,70.80
2022-10-25T04:03:20.031Z,70.67
2022-10-25T04:04:21.722Z,70.69
2022-10-25T04:05:23.214Z,70.64
2022-10-25T04:06:24.684Z,70.91
2022-10-25T04:07:26.235Z,70.75
2022-10-25T04:08:27.699Z,70.52
2022-10-25T04:09:29.200Z,70.59
2022-10-25T04:10:30.768Z,70.46
2022-10-25T04:11:32.282Z,70.60
2022-10-25T04:12:33.788Z,70.81
2022-10-25T04:13:35.373Z,70.92
2022-10-25T04:14:36.808Z,70.98
2022-10-25T04:15:38.727Z,70.91
2022-10-25T04:16:40.308Z,70.92
2022-10-25T04:17:41.831Z,70.77
2022-10-25T04:18:43.517Z,70.91
2022-10-25T04:19:45.185Z,70.65
2022-10-25T04:20:46.732Z,70.58
2022-10-25T04:21:48.269Z,70.54
2022-10-25T04:22:56.326Z,70.87
2022-10-25T04:23:59.388Z,70.76
2022-10-25T04:25:03.473Z,70.88
2022-10-25T04:26:05.019Z,70.78
2022-10-25T04:27:06.495Z,70.84
2022-10-25T04:28:07.966Z,70.77
2022-10-25T04:29:10.183Z,70.67
2022-10-25T04:30:11.940Z,70.67
2022-10-25T04:31:13.411Z,70.43
2022-10-25T04:32:14.959Z,70.44
2022-10-25T04:33:16.534Z,70.39
2022-10-25T04:34:18.019Z,70.24
2022-10-25T04:35:19.554Z,70.25
2022-10-25T04:36:21.119Z,70.33
2022-10-25T04:37:22.718Z,70.48
2022-10-25T04:38:24.292Z,70.50
2022-10-25T04:39:26.371Z,70.39
2022-10-25T04:40:27.904Z,70.29
2022-10-25T04:41:29.454Z,70.40
2022-10-25T04:42:32.679Z,70.39
2022-10-25T04:43:34.191Z,70.30
2022-10-25T04:44:35.727Z,70.23
2022-10-25T04:45:37.279Z,70.32
2022-10-25T04:46:38.792Z,70.48
2022-10-25T04:47:40.304Z,70.61
2022-10-25T04:48:41.857Z,70.33
2022-10-25T04:49:43.323Z,70.29
2022-10-25T04:50:44.903Z,70.29
2022-10-25T04:51:46.502Z,70.26
2022-10-25T04:52:48.163Z,70.33
2022-10-25T04:53:49.936Z,70.30
2022-10-25T04:54:51.548Z,70.33
2022-10-25T04:55:59.513Z,70.30
2022-10-25T04:57:01.083Z,70.23
2022-10-25T04:58:02.532Z,70.25
2022-10-25T04:59:04.019Z,70.29
2022-10-25T05:00:05.841Z,70.66
2022-10-25T05:01:11.198Z,71.00
2022-10-25T05:02:12.788Z,71.30
2022-10-25T05:03:14.361Z,71.47
2022-10-25T05:04:15.907Z,71.87
2022-10-25T05:05:17.653Z,71.81
2022-10-25T05:06:20.003Z,71.69
2022-10-25T05:07:21.549Z,72.02
2022-10-25T05:08:23.085Z,72.56
2022-10-25T05:09:24.696Z,72.60
2022-10-25T05:10:26.171Z,72.61
2022-10-25T05:11:27.925Z,72.45
2022-10-25T05:12:29.445Z,72.41
2022-10-25T05:13:31.891Z,72.37
2022-10-25T05:14:33.578Z,72.02
2022-10-25T05:15:35.059Z,72.27
2022-10-25T05:16:36.615Z,72.01
2022-10-25T05:17:38.145Z,71.95
2022-10-25T05:18:39.790Z,71.82
2022-10-25T05:19:41.258Z,71.74
2022-10-25T05:20:44.569Z,71.79
2022-10-25T05:21:47.780Z,72.04
2022-10-25T05:22:49.631Z,72.14
2022-10-25T05:23:51.326Z,72.29
2022-10-25T05:24:52.845Z,72.27
2022-10-25T05:26:20.941Z,72.08
2022-10-25T05:27:22.659Z,72.07
2022-10-25T05:28:24.148Z,71.71
2022-10-25T05:29:25.728Z,72.19
2022-10-25T05:30:27.287Z,72.35
2022-10-25T05:31:29.654Z,72.26
2022-10-25T05:32:31.185Z,72.10
2022-10-25T05:33:32.964Z,71.84
2022-10-25T05:34:34.606Z,71.72
2022-10-25T05:35:36.132Z,71.82
2022-10-25T05:36:37.744Z,72.02
2022-10-25T05:37:39.598Z,72.01
2022-10-25T05:38:41.220Z,71.82
2022-10-25T05:39:42.798Z,71.82
2022-10-25T05:40:44.359Z,71.89
2022-10-25T05:41:45.957Z,71.85
2022-10-25T05:42:47.831Z,72.29
2022-10-25T05:43:49.627Z,72.21
2022-10-25T05:44:51.224Z,72.40
2022-10-25T05:45:53.161Z,72.51
2022-10-25T05:46:55.385Z,72.40
2022-10-25T05:47:56.970Z,72.20
2022-10-25T05:48:58.648Z,72.39
2022-10-25T05:50:01.741Z,72.02
2022-10-25T05:51:32.153Z,72.40
2022-10-25T05:52:33.990Z,72.40
2022-10-25T05:53:35.547Z,72.22
2022-10-25T05:54:37.110Z,72.06
2022-10-25T05:55:38.665Z,72.16
2022-10-25T05:56:40.425Z,72.04
2022-10-25T05:57:41.899Z,71.79
2022-10-25T05:58:43.387Z,71.80
2022-10-25T05:59:45.023Z,71.75
2022-10-25T06:00:46.512Z,71.83
2022-10-25T06:01:48.112Z,71.69
2022-10-25T06:02:49.761Z,71.55
2022-10-25T06:03:51.589Z,71.83
2022-10-25T06:04:53.063Z,71.86
2022-10-25T06:05:54.549Z,71.84
2022-10-25T06:06:56.053Z,72.06
2022-10-25T06:07:57.490Z,72.17
2022-10-25T06:08:59.392Z,72.58
2022-10-25T06:10:00.866Z,72.65
2022-10-25T06:11:03.359Z,72.83
2022-10-25T06:12:07.427Z,73.05
2022-10-25T06:13:10.940Z,72.87
2022-10-25T06:14:12.394Z,73.61
2022-10-25T06:15:13.991Z,73.51
2022-10-25T06:16:16.099Z,73.26
2022-10-25T06:17:17.560Z,73.15
2022-10-25T06:18:19.012Z,73.17
2022-10-25T06:19:20.539Z,72.78
2022-10-25T06:20:22.107Z,72.77
2022-10-25T06:21:24.346Z,73.00
2022-10-25T06:22:25.862Z,73.09
2022-10-25T06:23:27.616Z,72.86
2022-10-25T06:24:29.674Z,73.08
2022-10-25T06:25:31.254Z,72.78
2022-10-25T06:26:32.784Z,72.76
2022-10-25T06:27:34.261Z,72.56
2022-10-25T06:28:35.750Z,72.28
2022-10-25T06:29:37.255Z,72.13
2022-10-25T06:30:38.794Z,71.94
2022-10-25T06:31:41.589Z,71.85
2022-10-25T06:32:43.085Z,71.74
2022-10-25T06:33:44.618Z,71.87
2022-10-25T06:34:46.204Z,72.05
2022-10-25T06:35:47.740Z,72.35
2022-10-25T06:36:49.311Z,72.39
2022-10-25T06:37:50.947Z,72.77
2022-10-25T06:38:52.464Z,73.14
2022-10-25T06:39:53.966Z,73.19
2022-10-25T06:40:59.131Z,73.29
2022-10-25T06:42:00.637Z,73.36
2022-10-25T06:43:02.151Z,73.28
2022-10-25T06:44:06.458Z,73.32
2022-10-25T06:45:08.659Z,73.49
2022-10-25T06:46:15.045Z,72.84
2022-10-25T06:47:17.968Z,72.49
2022-10-25T06:48:19.844Z,71.99
2022-10-25T06:49:21.385Z,71.70
2022-10-25T06:50:22.895Z,71.56
2022-10-25T06:51:24.751Z,71.37
2022-10-25T06:52:27.743Z,71.25
2022-10-25T06:53:29.203Z,70.97
2022-10-25T06:54:30.700Z,70.91
2022-10-25T06:55:32.272Z,70.75
2022-10-25T06:56:33.723Z,70.91
2022-10-25T06:57:35.218Z,70.89
2022-10-25T06:58:37.074Z,70.99
2022-10-25T06:59:38.567Z,70.81
2022-10-25T07:00:40.012Z,70.64
2022-10-25T07:01:41.521Z,70.85
2022-10-25T07:02:43.062Z,71.39
2022-10-25T07:03:44.674Z,71.39
2022-10-25T07:04:46.142Z,71.25
2022-10-25T07:05:47.671Z,71.09
2022-10-25T07:06:51.529Z,70.94
2022-10-25T07:07:55.923Z,69.95
2022-10-25T07:08:58.752Z,69.44
2022-10-25T07:10:00.230Z,69.75
2022-10-25T07:11:01.750Z,69.72
2022-10-25T07:12:03.243Z,69.83
2022-10-25T07:13:04.963Z,69.68
2022-10-25T07:14:06.563Z,69.83
2022-10-25T07:15:08.298Z,70.49
2022-10-25T07:16:10.517Z,69.06
2022-10-25T07:17:12.000Z,68.51
2022-10-25T07:18:13.501Z,68.21
2022-10-25T07:19:15.070Z,68.17
2022-10-25T07:20:16.682Z,68.05
2022-10-25T07:21:20.124Z,67.66
2022-10-25T07:22:21.590Z,66.95
2022-10-25T07:23:23.128Z,67.34
2022-10-25T07:24:24.627Z,66.93
2022-10-25T07:25:26.263Z,66.28
2022-10-25T07:26:31.546Z,66.98
2022-10-25T07:27:33.330Z,66.39
2022-10-25T07:28:34.907Z,66.47
2022-10-25T07:29:36.601Z,65.86
2022-10-25T07:30:38.226Z,64.99
2022-10-25T07:31:40.952Z,65.28
2022-10-25T07:32:42.632Z,63.87
2022-10-25T07:33:44.314Z,64.03
2022-10-25T07:34:45.948Z,63.68
2022-10-25T07:35:59.005Z,63.74
2022-10-25T07:37:09.835Z,62.55
2022-10-25T07:38:11.558Z,62.30
2022-10-25T07:39:13.126Z,61.89
2022-10-25T07:40:14.705Z,60.62
2022-10-25T07:41:16.211Z,60.81
2022-10-25T07:42:17.796Z,61.39
2022-10-25T07:43:19.392Z,60.52
2022-10-25T07:44:24.752Z,61.13
2022-10-25T07:45:28.878Z,61.27
2022-10-25T07:46:32.790Z,60.98
2022-10-25T07:47:34.398Z,61.20
2022-10-25T07:48:36.058Z,60.83
2022-10-25T07:49:38.841Z,61.54
2022-10-25T07:50:40.419Z,62.10
2022-10-25T07:51:41.961Z,62.36
2022-10-25T07:52:43.415Z,61.17
2022-10-25T07:53:44.921Z,61.65
2022-10-25T07:54:46.427Z,60.81
2022-10-25T07:55:51.798Z,60.50
2022-10-25T07:56:53.438Z,60.54
2022-10-25T07:57:59.413Z,60.43
2022-10-25T07:59:00.914Z,60.18
2022-10-25T08:00:02.396Z,60.30
2022-10-25T08:01:08.560Z,60.50
2022-10-25T08:02:10.867Z,60.63
2022-10-25T08:03:13.051Z,60.90
2022-10-25T08:04:15.060Z,60.51
2022-10-25T08:05:16.512Z,60.78
2022-10-25T08:06:18.324Z,61.02
2022-10-25T08:07:19.899Z,61.04
2022-10-25T08:08:23.199Z,61.04
2022-10-25T08:09:37.798Z,61.31
2022-10-25T08:10:41.198Z,61.65
2022-10-25T08:11:42.821Z,61.88
2022-10-25T08:12:44.479Z,62.04
2022-10-25T08:13:47.579Z,61.82
2022-10-25T08:14:49.807Z,62.13
2022-10-25T08:15:54.741Z,62.44
2022-10-25T08:16:56.353Z,62.53
2022-10-25T08:18:00.819Z,62.65
2022-10-25T08:19:02.531Z,62.83
2022-10-25T08:20:04.268Z,62.93
2022-10-25T08:21:05.760Z,63.02
2022-10-25T08:22:07.352Z,62.64
2022-10-25T08:23:08.815Z,62.77
2022-10-25T08:24:10.528Z,63.00
2022-10-25T08:25:12.084Z,63.01
2022-10-25T08:26:13.639Z,63.06
2022-10-25T08:27:15.246Z,62.99
2022-10-25T08:28:16.805Z,63.09
2022-10-25T08:29:18.343Z,62.85
2022-10-25T08:30:20.030Z,62.83
2022-10-25T08:31:21.697Z,62.04
2022-10-25T08:32:23.175Z,62.16
2022-10-25T08:33:24.757Z,61.81
2022-10-25T08:34:27.489Z,61.77
2022-10-25T08:35:31.112Z,62.12
2022-10-25T08:36:32.704Z,62.06
2022-10-25T08:37:34.325Z,62.19
2022-10-25T08:38:35.950Z,61.72
2022-10-25T08:39:37.459Z,62.08
2022-10-25T08:40:39.126Z,62.03
2022-10-25T08:41:49.748Z,62.04
2022-10-25T08:43:09.843Z,61.98
2022-10-25T08:44:11.451Z,62.01
2022-10-25T08:45:16.312Z,62.40
2022-10-25T08:46:22.184Z,62.37
2022-10-25T08:47:34.027Z,62.49
2022-10-25T08:48:37.389Z,62.61
2022-10-25T08:49:56.224Z,62.56
2022-10-25T08:51:02.079Z,62.45
2022-10-25T08:52:03.663Z,62.54
2022-10-25T08:53:06.431Z,62.48
2022-10-25T08:54:16.617Z,62.64
2022-10-25T08:55:20.199Z,62.60
2022-10-25T08:56:21.904Z,62.44
2022-10-25T08:57:24.264Z,62.45
2022-10-25T08:58:33.111Z,62.31
2022-10-25T08:59:35.603Z,62.60
2022-10-25T09:00:37.968Z,62.38
2022-10-25T09:01:47.519Z,62.34
2022-10-25T09:02:59.032Z,62.58
2022-10-25T09:04:00.717Z,62.72
2022-10-25T09:05:02.289Z,62.93
2022-10-25T09:06:09.546Z,62.06
2022-10-25T09:07:11.181Z,62.36
2022-10-25T09:08:15.843Z,62.13
2022-10-25T09:09:20.475Z,61.77
2022-10-25T09:10:24.780Z,62.02
2022-10-25T09:11:30.137Z,62.43
2022-10-25T09:12:35.052Z,62.39
2022-10-25T09:13:50.032Z,62.27
2022-10-25T09:14:54.438Z,61.68
2022-10-25T09:16:01.437Z,61.95
2022-10-25T09:17:04.227Z,61.95
2022-10-25T09:18:19.448Z,61.45
2022-10-25T09:19:20.993Z,61.06
2022-10-25T09:20:32.555Z,61.04
2022-10-25T09:21:37.126Z,61.09
2022-10-25T09:22:38.698Z,60.69
2022-10-25T09:23:40.182Z,60.74
2022-10-25T09:24:45.269Z,60.70
2022-10-25T09:25:46.703Z,60.20
2022-10-25T09:26:56.991Z,60.66
2022-10-25T09:28:00.138Z,60.61
2022-10-25T09:29:04.913Z,60.52
2022-10-25T09:30:07.676Z,61.00
2022-10-25T09:31:10.880Z,61.34
2022-10-25T09:32:15.305Z,60.90
2022-10-25T09:33:17.888Z,60.75
2022-10-25T09:34:21.728Z,60.66
2022-10-25T09:35:42.630Z,59.77
2022-10-25T09:36:45.027Z,59.62
2022-10-25T09:37:51.393Z,58.83
2022-10-25T09:38:53.742Z,58.02
2022-10-25T09:39:56.382Z,57.00
2022-10-25T09:41:04.181Z,55.87
2022-10-25T09:42:07.487Z,55.25
2022-10-25T09:43:14.577Z,54.91
2022-10-25T09:44:31.408Z,54.54
2022-10-25T09:45:51.976Z,54.31
2022-10-25T09:47:13.219Z,53.29
2022-10-25T09:48:37.435Z,53.70
2022-10-25T09:49:57.482Z,52.79
2022-10-25T09:51:00.958Z,52.25
2022-10-25T09:52:02.458Z,51.52
2022-10-25T09:53:03.934Z,52.39
2022-10-25T09:54:12.371Z,50.94
2022-10-25T09:55:29.111Z,50.87
2022-10-25T09:56:30.581Z,51.80
2022-10-25T09:57:32.023Z,50.04
2022-10-25T09:58:34.047Z,49.69
2022-10-25T09:59:35.524Z,49.42
2022-10-25T10:00:37.383Z,49.11
2022-10-25T10:01:38.953Z,49.14
2022-10-25T10:02:41.257Z,50.00
2022-10-25T10:03:44.585Z,49.51
2022-10-25T10:04:48.555Z,49.29
2022-10-25T10:05:50.820Z,49.24
2022-10-25T10:06:53.658Z,48.84
2022-10-25T10:07:55.144Z,47.85
2022-10-25T10:09:00.725Z,47.81
2022-10-25T10:10:02.936Z,47.90
2022-10-25T10:11:05.568Z,47.53
2022-10-25T10:12:07.839Z,48.02
2022-10-25T10:13:20.284Z,48.42
2022-10-25T10:14:24.569Z,48.29
2022-10-25T10:15:27.114Z,47.53
2022-10-25T10:16:32.543Z,47.82
2022-10-25T10:17:33.991Z,48.00
2022-10-25T10:18:35.489Z,47.40
2022-10-25T10:19:37.027Z,47.60
2022-10-25T10:20:38.512Z,46.93
2022-10-25T10:21:43.266Z,46.07
2022-10-25T10:22:45.596Z,46.42
2022-10-25T10:23:48.465Z,46.64
2022-10-25T10:24:49.893Z,46.69
2022-10-25T10:25:51.373Z,46.39
2022-10-25T10:26:55.624Z,46.70
2022-10-25T10:27:57.309Z,46.00
2022-10-25T10:29:18.558Z,46.40
2022-10-25T10:30:23.871Z,46.70
2022-10-25T10:31:25.338Z,46.25
2022-10-25T10:32:27.602Z,46.99
2022-10-25T10:33:29.982Z,46.52
2022-10-25T10:34:43.631Z,45.94
2022-10-25T10:35:45.082Z,45.79
2022-10-25T10:36:50.040Z,44.99
2022-10-25T10:37:51.543Z,45.39
2022-10-25T10:38:53.067Z,45.31
2022-10-25T10:40:00.668Z,45.62
2022-10-25T10:41:28.471Z,45.28
2022-10-25T10:43:31.944Z,44.90
2022-10-25T10:44:36.048Z,45.36
2022-10-25T10:45:37.552Z,45.56
2022-10-25T10:46:45.859Z,45.78
2022-10-25T10:47:50.186Z,45.77
2022-10-25T10:48:55.583Z,45.83
2022-10-25T10:49:57.043Z,46.21
2022-10-25T10:50:58.489Z,46.34
2022-10-25T10:52:00.289Z,46.93
2022-10-25T10:53:09.328Z,47.14
2022-10-25T10:54:19.685Z,47.22
2022-10-25T10:55:44.361Z,47.45
2022-10-25T10:56:52.640Z,48.19
2022-10-25T10:57:54.395Z,48.01
2022-10-25T10:58:55.847Z,47.66
2022-10-25T10:59:57.507Z,48.08
2022-10-25T11:01:00.299Z,48.44
2022-10-25T11:02:20.554Z,48.83
2022-10-25T11:03:59.952Z,49.25
2022-10-25T11:05:25.760Z,49.52
2022-10-25T11:06:30.888Z,49.83
2022-10-25T11:07:34.190Z,50.10
2022-10-25T11:08:35.687Z,50.09
2022-10-25T11:09:37.120Z,50.03
2022-10-25T11:10:38.878Z,50.37
2022-10-25T11:11:40.399Z,50.32
2022-10-25T11:12:42.173Z,50.53
2022-10-25T11:13:58.814Z,50.78
2022-10-25T11:15:00.258Z,50.77
2022-10-25T11:16:07.114Z,50.72
2022-10-25T11:17:15.682Z,51.75
2022-10-25T11:18:17.178Z,52.46
2022-10-25T11:19:27.316Z,52.91
2022-10-25T11:20:34.315Z,52.94
2022-10-25T11:21:57.412Z,53.22
2022-10-25T11:23:01.321Z,53.76
2022-10-25T11:24:05.916Z,53.95
2022-10-25T11:25:13.131Z,53.54
2022-10-25T11:26:14.568Z,53.13
2022-10-25T11:27:45.259Z,53.58
2022-10-25T11:29:10.024Z,53.41
2022-10-25T11:30:11.567Z,54.45
2022-10-25T11:31:19.189Z,54.18
2022-10-25T11:32:27.824Z,54.46
2022-10-25T11:33:49.597Z,54.80
2022-10-25T11:34:57.126Z,55.00
2022-10-25T11:36:10.616Z,55.06
2022-10-25T11:37:12.074Z,54.92
2022-10-25T11:38:16.582Z,55.19
2022-10-25T11:39:48.200Z,55.68
2022-10-25T11:40:52.904Z,55.98
2022-10-25T11:41:56.894Z,55.66
2022-10-25T11:43:04.281Z,55.86
2022-10-25T11:44:23.405Z,55.62
2022-10-25T11:45:32.314Z,56.18
2022-10-25T11:46:52.359Z,55.98
2022-10-25T11:47:53.800Z,55.67
2022-10-25T11:49:04.338Z,55.81
2022-10-25T11:50:11.980Z,56.32
2022-10-25T11:51:32.108Z,56.34
2022-10-25T11:52:41.177Z,53.29
2022-10-25T11:53:48.564Z,54.10
2022-10-25T11:54:55.655Z,54.45
2022-10-25T11:56:00.990Z,54.49
2022-10-25T11:57:05.046Z,53.56
2022-10-25T11:58:10.114Z,53.07
2022-10-25T11:59:30.070Z,52.85
2022-10-25T12:00:45.529Z,52.61
2022-10-25T12:01:55.711Z,53.25
2022-10-25T12:02:57.206Z,53.52
2022-10-25T12:03:58.744Z,53.62
2022-10-25T12:05:09.095Z,52.76
2022-10-25T12:06:13.748Z,53.02
2022-10-25T12:07:24.637Z,52.87
2022-10-25T12:08:29.552Z,52.47
2022-10-25T12:09:30.999Z,52.73
2022-10-25T12:10:36.419Z,52.36
2022-10-25T12:11:39.325Z,52.37
2022-10-25T12:12:43.343Z,52.36
2022-10-25T12:13:49.359Z,52.95
2022-10-25T12:14:54.733Z,53.39
2022-10-25T12:15:56.565Z,53.68
2022-10-25T12:16:58.146Z,53.81
2022-10-25T12:17:59.646Z,53.79
2022-10-25T12:19:04.340Z,53.18
2022-10-25T12:20:06.381Z,53.29
2022-10-25T12:21:07.953Z,53.53
2022-10-25T12:22:12.164Z,53.04
2022-10-25T12:23:14.318Z,53.32
2022-10-25T12:24:17.714Z,52.84
2022-10-25T12:25:35.664Z,52.75
2022-10-25T12:26:38.463Z,53.03
2022-10-25T12:27:39.947Z,53.03
2022-10-25T12:28:41.381Z,52.53
2022-10-25T12:29:44.334Z,52.70
2022-10-25T12:30:45.790Z,52.39
2022-10-25T12:31:49.151Z,52.87
2022-10-25T12:32:50.825Z,52.92
2022-10-25T12:33:53.889Z,52.86
2022-10-25T12:34:55.375Z,51.91
2022-10-25T12:35:58.958Z,52.03
2022-10-25T12:37:01.470Z,51.71
2022-10-25T12:38:05.245Z,51.61
2022-10-25T12:39:14.241Z,51.40
2022-10-25T12:40:16.421Z,51.93
2022-10-25T12:41:19.602Z,52.01
2022-10-25T12:42:24.448Z,52.18
2022-10-25T12:43:31.321Z,51.87
2022-10-25T12:44:38.822Z,51.35
2022-10-25T12:45:58.280Z,51.36
2022-10-25T12:47:12.102Z,51.97
2022-10-25T12:48:16.195Z,52.02
2022-10-25T12:49:17.622Z,52.02
2022-10-25T12:50:21.092Z,52.09
2022-10-25T12:51:41.298Z,52.44
2022-10-25T12:53:03.071Z,52.08
2022-10-25T12:54:23.473Z,52.06
2022-10-25T12:55:43.915Z,51.82
2022-10-25T12:56:45.733Z,51.13
2022-10-25T12:57:49.944Z,51.23
2022-10-25T12:58:57.253Z,51.55
2022-10-25T12:59:58.690Z,51.63
2022-10-25T13:01:19.008Z,51.63
2022-10-25T13:02:20.702Z,52.00
2022-10-25T13:03:22.158Z,51.66
2022-10-25T13:04:42.189Z,50.95
2022-10-25T13:05:56.164Z,50.95
2022-10-25T13:06:57.668Z,51.16
2022-10-25T13:08:00.124Z,51.27
2022-10-25T13:09:24.761Z,51.10
2022-10-25T13:10:28.610Z,51.35
2022-10-25T13:11:34.023Z,51.08
2022-10-25T13:12:35.508Z,50.69
2022-10-25T13:13:41.331Z,51.25
2022-10-25T13:14:46.067Z,51.13
2022-10-25T13:15:54.387Z,51.28
2022-10-25T13:17:14.541Z,51.88
2022-10-25T13:18:26.390Z,51.67
2022-10-25T13:19:53.394Z,51.09
2022-10-25T13:20:50.764Z,51.08
2022-10-25T13:21:53.230Z,50.69
2022-10-25T13:22:55.005Z,51.00
2022-10-25T13:23:59.251Z,50.86
2022-10-25T13:25:01.411Z,49.86
2022-10-25T13:26:04.472Z,49.94
2022-10-25T13:27:12.125Z,50.55
2022-10-25T13:28:13.562Z,49.94
2022-10-25T13:29:33.807Z,50.14
2022-10-25T13:30:35.447Z,50.26
2022-10-25T13:31:37.096Z,49.78
2022-10-25T13:32:39.148Z,50.12
2022-10-25T13:33:40.875Z,49.77
2022-10-25T13:34:42.351Z,49.87
2022-10-25T13:35:43.842Z,49.72
2022-10-25T13:36:52.257Z,50.08
2022-10-25T13:37:54.219Z,50.31
2022-10-25T13:39:05.262Z,50.27
2022-10-25T13:40:21.985Z,49.83
2022-10-25T13:41:23.439Z,50.01
2022-10-25T13:42:30.775Z,50.08
2022-10-25T13:43:32.295Z,50.20
2022-10-25T13:44:33.895Z,49.77
2022-10-25T13:45:42.920Z,50.33
2022-10-25T13:46:44.419Z,50.21
2022-10-25T13:47:46.350Z,50.11
2022-10-25T13:48:48.846Z,49.92
2022-10-25T13:49:50.379Z,49.99
2022-10-25T13:50:52.683Z,50.33
2022-10-25T13:51:55.052Z,50.71
2022-10-25T13:53:01.555Z,50.63
2022-10-25T13:54:06.052Z,50.51